createdAt,value
2018-08-19T00:00:28.606Z,23.28
2018-08-19T00:03:02.881Z,23.29
2018-08-19T00:05:31.536Z,23.26
2018-08-19T00:08:00.541Z,23.24
2018-08-19T00:10:41.244Z,23.21
2018-08-19T00:13:12.817Z,23.21
2018-08-19T00:15:42.037Z,23.22
2018-08-19T00:18:12.514Z,23.23
2018-08-19T00:20:41.546Z,23.23
2018-08-19T00:23:11.142Z,23.22
2018-08-19T00:25:41.709Z,23.18
2018-08-19T00:28:11.716Z,23.17
2018-08-19T00:30:41.426Z,23.11
2018-08-19T00:33:15.716Z,23.12
2018-08-19T00:35:44.672Z,23.10
2018-08-19T00:38:14.753Z,23.06
2018-08-19T00:40:43.968Z,23.04
2018-08-19T00:43:26.128Z,23.04
2018-08-19T00:45:54.580Z,23.02
2018-08-19T00:48:23.157Z,23.03
2018-08-19T00:50:52.616Z,23.02
2018-08-19T00:53:21.250Z,22.96
2018-08-19T00:55:50.478Z,22.94
2018-08-19T00:58:21.583Z,22.95
2018-08-19T01:00:50.468Z,22.96
2018-08-19T01:03:19.054Z,22.93
2018-08-19T01:05:47.620Z,22.92
2018-08-19T01:08:16.178Z,22.86
2018-08-19T01:10:44.766Z,22.88
2018-08-19T01:16:05.797Z,22.93
2018-08-19T01:18:34.214Z,22.94
2018-08-19T01:21:09.718Z,22.91
2018-08-19T01:26:34.988Z,22.83
2018-08-19T01:29:03.998Z,22.79
2018-08-19T01:31:32.680Z,22.76
2018-08-19T01:34:14.979Z,22.80
2018-08-19T01:36:43.542Z,22.69
2018-08-19T01:39:13.582Z,22.61
2018-08-19T01:41:43.126Z,22.64
2018-08-19T01:47:04.364Z,22.67
2018-08-19T01:49:33.099Z,22.60
2018-08-19T01:52:11.089Z,22.57
2018-08-19T01:54:39.418Z,22.59
2018-08-19T01:57:07.830Z,22.60
2018-08-19T01:59:36.434Z,22.60
2018-08-19T02:02:06.486Z,22.50
2018-08-19T02:04:41.192Z,22.34
2018-08-19T02:07:09.843Z,22.28
2018-08-19T02:09:52.390Z,22.27
2018-08-19T02:12:21.465Z,22.24
2018-08-19T02:14:50.446Z,22.18
2018-08-19T02:17:19.351Z,22.06
2018-08-19T02:19:48.278Z,22.11
2018-08-19T02:22:22.600Z,22.16
2018-08-19T02:24:55.190Z,22.24
2018-08-19T02:27:24.331Z,22.29
2018-08-19T02:29:53.317Z,22.30
2018-08-19T02:32:22.056Z,22.15
2018-08-19T02:34:50.836Z,22.05
2018-08-19T02:37:19.598Z,22.07
2018-08-19T02:39:49.396Z,21.90
2018-08-19T02:42:31.847Z,21.74
2018-08-19T02:45:05.904Z,21.65
2018-08-19T02:47:36.300Z,21.68
2018-08-19T02:50:05.706Z,21.62
2018-08-19T02:52:37.143Z,21.56
2018-08-19T02:55:07.704Z,21.52
2018-08-19T02:57:39.257Z,21.55
2018-08-19T03:00:10.217Z,21.57
2018-08-19T03:02:42.849Z,21.64
2018-08-19T03:05:13.718Z,21.65
2018-08-19T03:07:43.013Z,21.67
2018-08-19T03:10:14.200Z,21.75
2018-08-19T03:12:52.513Z,21.76
2018-08-19T03:15:21.340Z,21.72
2018-08-19T03:17:50.504Z,21.72
2018-08-19T03:20:21.597Z,21.66
2018-08-19T03:31:28.293Z,21.09
2018-08-19T03:33:56.668Z,21.10
2018-08-19T03:36:25.781Z,21.17
2018-08-19T03:38:55.491Z,21.28
2018-08-19T03:41:24.275Z,21.33
2018-08-19T03:43:59.332Z,21.39
2018-08-19T03:46:28.916Z,21.44
2018-08-19T03:48:57.693Z,21.47
2018-08-19T03:51:26.358Z,21.53
2018-08-19T03:53:55.165Z,21.54
2018-08-19T03:56:27.366Z,21.57
2018-08-19T03:58:59.010Z,21.56
2018-08-19T04:01:40.510Z,21.53
2018-08-19T04:04:18.573Z,21.53
2018-08-19T04:06:47.736Z,21.50
2018-08-19T04:09:16.486Z,21.46
2018-08-19T04:11:50.804Z,21.47
2018-08-19T04:14:27.587Z,21.44
2018-08-19T04:16:58.626Z,21.44
2018-08-19T04:19:27.829Z,21.45
2018-08-19T04:22:00.742Z,21.47
2018-08-19T04:24:29.910Z,21.51
2018-08-19T04:26:59.070Z,21.51
2018-08-19T04:29:28.612Z,21.53
2018-08-19T04:32:00.110Z,21.51
2018-08-19T04:34:28.562Z,21.50
2018-08-19T04:36:57.604Z,21.49
2018-08-19T04:39:26.040Z,21.46
2018-08-19T04:41:54.475Z,21.46
2018-08-19T04:44:22.876Z,21.48
2018-08-19T04:46:51.490Z,21.49
2018-08-19T04:49:19.906Z,21.51
2018-08-19T04:51:48.295Z,21.50
2018-08-19T04:54:16.978Z,21.52
2018-08-19T04:56:45.705Z,21.51
2018-08-19T04:59:14.657Z,21.52
2018-08-19T05:01:43.213Z,21.53
2018-08-19T05:04:11.834Z,21.53
2018-08-19T05:06:40.624Z,21.60
2018-08-19T05:09:09.174Z,21.70
2018-08-19T05:11:38.110Z,21.71
2018-08-19T05:14:06.894Z,21.72
2018-08-19T05:16:35.675Z,21.75
2018-08-19T05:19:04.523Z,21.76
2018-08-19T05:21:33.284Z,21.80
2018-08-19T05:24:02.367Z,21.78
2018-08-19T05:26:30.883Z,21.81
2018-08-19T05:29:10.743Z,21.76
2018-08-19T05:31:47.071Z,21.72
2018-08-19T05:34:21.565Z,21.71
2018-08-19T05:36:50.348Z,21.75
2018-08-19T05:39:19.686Z,21.78
2018-08-19T05:42:01.379Z,21.82
2018-08-19T05:44:32.637Z,21.81
2018-08-19T05:47:06.529Z,21.82
2018-08-19T05:49:38.328Z,21.86
2018-08-19T05:52:24.139Z,21.89
2018-08-19T05:54:54.962Z,21.87
2018-08-19T05:57:23.494Z,21.89
2018-08-19T05:59:53.266Z,21.91
2018-08-19T06:02:35.719Z,21.90
2018-08-19T06:05:04.551Z,21.93
2018-08-19T06:07:33.070Z,21.94
2018-08-19T06:10:01.665Z,21.94
2018-08-19T06:12:30.847Z,21.99
2018-08-19T06:15:00.286Z,21.97
2018-08-19T06:17:29.177Z,21.97
2018-08-19T06:19:58.729Z,21.98
2018-08-19T06:22:33.849Z,22.02
2018-08-19T06:25:02.679Z,21.99
2018-08-19T06:27:36.413Z,22.01
2018-08-19T06:30:05.529Z,22.04
2018-08-19T06:32:34.173Z,22.05
2018-08-19T06:35:03.030Z,22.04
2018-08-19T06:37:31.515Z,22.05
2018-08-19T06:40:00.055Z,22.05
2018-08-19T06:42:28.585Z,22.07
2018-08-19T06:44:57.237Z,22.08
2018-08-19T06:47:25.721Z,22.12
2018-08-19T06:49:57.173Z,22.13
2018-08-19T06:52:30.728Z,22.15
2018-08-19T06:54:59.165Z,22.16
2018-08-19T06:57:28.999Z,22.21
2018-08-19T06:59:57.594Z,22.21
2018-08-19T07:02:26.176Z,22.23
2018-08-19T07:04:54.695Z,22.26
2018-08-19T07:07:23.231Z,22.25
2018-08-19T07:09:51.633Z,22.29
2018-08-19T07:12:22.776Z,22.30
2018-08-19T07:14:51.570Z,22.31
2018-08-19T07:17:20.492Z,22.34
2018-08-19T07:19:48.920Z,22.39
2018-08-19T07:22:19.946Z,22.44
2018-08-19T07:24:48.384Z,22.48
2018-08-19T07:27:16.792Z,22.52
2018-08-19T07:29:45.382Z,22.58
2018-08-19T07:32:14.098Z,22.63
2018-08-19T07:34:42.726Z,22.66
2018-08-19T07:37:11.358Z,22.71
2018-08-19T07:39:46.394Z,22.75
2018-08-19T07:42:15.152Z,22.78
2018-08-19T07:44:43.667Z,22.82
2018-08-19T07:47:12.379Z,22.88
2018-08-19T07:49:41.201Z,22.90
2018-08-19T07:52:09.721Z,22.90
2018-08-19T07:54:38.298Z,22.97
2018-08-19T07:57:13.213Z,22.97
2018-08-19T07:59:42.398Z,23.00
2018-08-19T08:02:11.541Z,23.02
2018-08-19T08:04:43.213Z,23.08
2018-08-19T08:07:12.666Z,23.10
2018-08-19T08:09:42.006Z,23.10
2018-08-19T08:12:11.757Z,23.12
2018-08-19T08:14:44.521Z,23.18
2018-08-19T08:17:13.063Z,23.24
2018-08-19T08:19:47.146Z,23.27
2018-08-19T08:22:16.032Z,23.33
2018-08-19T08:24:44.871Z,23.40
2018-08-19T08:27:13.560Z,23.42
2018-08-19T08:29:42.065Z,23.47
2018-08-19T08:32:10.596Z,23.49
2018-08-19T08:34:39.114Z,23.56
2018-08-19T08:37:08.233Z,23.57
2018-08-19T08:39:37.555Z,23.61
2018-08-19T08:42:06.492Z,23.71
2018-08-19T08:44:35.073Z,23.78
2018-08-19T08:47:06.851Z,23.80
2018-08-19T08:49:41.430Z,23.87
2018-08-19T08:52:25.184Z,23.95
2018-08-19T08:54:55.999Z,24.02
2018-08-19T08:57:25.164Z,24.17
2018-08-19T08:59:54.116Z,24.25
2018-08-19T09:02:27.966Z,24.33
2018-08-19T09:04:56.785Z,24.42
2018-08-19T09:07:27.139Z,24.53
2018-08-19T09:09:55.674Z,24.58
2018-08-19T09:12:44.891Z,24.68
2018-08-19T09:15:14.153Z,24.66
2018-08-19T09:17:43.043Z,24.76
2018-08-19T09:20:12.079Z,24.88
2018-08-19T09:22:40.742Z,25.01
2018-08-19T09:25:10.107Z,25.16
2018-08-19T09:27:40.255Z,25.26
2018-08-19T09:30:10.227Z,25.31
2018-08-19T09:33:00.140Z,25.46
2018-08-19T09:35:31.386Z,25.52
2018-08-19T09:38:05.205Z,25.66
2018-08-19T09:40:35.173Z,25.72
2018-08-19T09:43:04.209Z,25.87
2018-08-19T09:45:33.117Z,25.96
2018-08-19T09:48:02.643Z,26.09
2018-08-19T09:50:32.904Z,26.23
2018-08-19T09:53:03.771Z,26.30
2018-08-19T09:55:37.775Z,26.45
2018-08-19T09:58:10.349Z,26.58
2018-08-19T10:00:44.399Z,26.66
2018-08-19T10:03:18.341Z,26.70
2018-08-19T10:05:48.057Z,26.80
2018-08-19T10:08:17.083Z,26.90
2018-08-19T10:10:45.871Z,26.96
2018-08-19T10:13:19.501Z,27.03
2018-08-19T10:15:48.952Z,27.10
2018-08-19T10:18:19.914Z,27.20
2018-08-19T10:21:10.790Z,27.36
2018-08-19T10:23:39.477Z,27.42
2018-08-19T10:26:08.627Z,27.39
2018-08-19T10:28:37.423Z,27.49
2018-08-19T10:31:16.050Z,27.65
2018-08-19T10:33:54.147Z,27.76
2018-08-19T10:36:23.071Z,27.89
2018-08-19T10:38:54.119Z,28.05
2018-08-19T10:41:23.520Z,28.14
2018-08-19T10:43:52.928Z,28.28
2018-08-19T10:46:21.522Z,28.33
2018-08-19T10:48:50.017Z,28.62
2018-08-19T10:51:18.770Z,28.86
2018-08-19T10:53:47.637Z,29.13
2018-08-19T10:56:16.444Z,29.31
2018-08-19T10:58:52.016Z,29.53
2018-08-19T11:01:21.348Z,29.52
2018-08-19T11:03:50.085Z,29.77
2018-08-19T11:06:18.584Z,29.69
2018-08-19T11:08:52.159Z,29.80
2018-08-19T11:11:20.808Z,30.06
2018-08-19T11:13:49.304Z,30.13
2018-08-19T11:16:18.159Z,30.20
2018-08-19T11:18:49.572Z,30.49
2018-08-19T11:21:26.295Z,30.59
2018-08-19T11:23:55.359Z,30.77
2018-08-19T11:26:24.065Z,31.09
2018-08-19T11:28:55.823Z,31.29
2018-08-19T11:31:30.616Z,31.31
2018-08-19T11:34:01.215Z,31.47
2018-08-19T11:36:36.028Z,31.84
2018-08-19T11:39:08.091Z,32.16
2018-08-19T11:41:36.659Z,32.37
2018-08-19T11:44:08.381Z,32.44
2018-08-19T11:46:37.019Z,32.37
2018-08-19T11:49:24.133Z,32.48
2018-08-19T11:51:55.709Z,32.70
2018-08-19T11:54:25.061Z,32.96
2018-08-19T11:57:02.511Z,33.19
2018-08-19T11:59:44.520Z,33.47
2018-08-19T12:02:15.871Z,33.28
2018-08-19T12:04:44.823Z,33.31
2018-08-19T12:07:13.465Z,33.43
2018-08-19T12:09:44.611Z,33.43
2018-08-19T12:12:13.027Z,33.60
2018-08-19T12:14:41.603Z,33.78
2018-08-19T12:17:11.276Z,33.86
2018-08-19T12:19:41.047Z,34.02
2018-08-19T12:22:09.771Z,34.34
2018-08-19T12:24:47.094Z,34.40
2018-08-19T12:27:17.122Z,34.36
2018-08-19T12:29:46.365Z,34.31
2018-08-19T12:32:18.809Z,34.05
2018-08-19T12:34:51.736Z,34.43
2018-08-19T12:37:21.394Z,34.52
2018-08-19T12:39:50.260Z,34.51
2018-08-19T12:42:18.902Z,34.41
2018-08-19T12:44:49.578Z,34.63
2018-08-19T12:47:20.376Z,34.39
2018-08-19T12:49:56.640Z,34.33
2018-08-19T12:52:27.467Z,34.66
2018-08-19T12:54:58.005Z,34.69
2018-08-19T12:57:26.723Z,34.74
2018-08-19T13:00:02.392Z,35.16
2018-08-19T13:02:43.107Z,35.03
2018-08-19T13:05:11.901Z,35.00
2018-08-19T13:07:40.525Z,35.10
2018-08-19T13:10:09.323Z,35.29
2018-08-19T13:12:58.373Z,35.29
2018-08-19T13:15:29.206Z,34.99
2018-08-19T13:17:57.647Z,34.99
2018-08-19T13:20:26.254Z,34.79
2018-08-19T13:23:03.993Z,34.55
2018-08-19T13:25:32.720Z,34.37
2018-08-19T13:28:01.231Z,34.24
2018-08-19T13:30:29.695Z,34.23
2018-08-19T13:32:58.257Z,34.05
2018-08-19T13:35:26.695Z,33.98
2018-08-19T13:37:55.147Z,33.82
2018-08-19T13:40:23.639Z,33.76
2018-08-19T13:42:52.187Z,33.80
2018-08-19T13:45:21.803Z,33.77
2018-08-19T13:47:52.446Z,34.00
2018-08-19T13:50:20.935Z,34.04
2018-08-19T13:52:49.554Z,34.05
2018-08-19T13:55:19.370Z,34.00
2018-08-19T13:57:47.895Z,33.99
2018-08-19T14:00:17.807Z,34.03
2018-08-19T14:02:47.136Z,34.02
2018-08-19T14:05:15.587Z,33.92
2018-08-19T14:07:44.131Z,33.93
2018-08-19T14:10:13.609Z,33.91
2018-08-19T14:12:42.071Z,33.94
2018-08-19T14:15:10.599Z,33.92
2018-08-19T14:17:39.037Z,33.92
2018-08-19T14:20:08.810Z,33.96
2018-08-19T14:22:37.302Z,33.87
2018-08-19T14:25:06.932Z,33.89
2018-08-19T14:27:35.379Z,33.86
2018-08-19T14:30:03.974Z,33.86
2018-08-19T14:32:34.731Z,33.66
2018-08-19T14:35:04.243Z,33.63
2018-08-19T14:37:33.039Z,33.58
2018-08-19T14:40:02.045Z,33.50
2018-08-19T14:42:30.496Z,33.41
2018-08-19T14:44:59.691Z,33.33
2018-08-19T14:47:28.483Z,33.33
2018-08-19T14:49:58.001Z,33.28
2018-08-19T14:52:27.086Z,33.27
2018-08-19T14:54:55.547Z,33.05
2018-08-19T14:57:24.142Z,32.82
2018-08-19T14:59:52.734Z,32.70
2018-08-19T15:02:21.195Z,32.53
2018-08-19T15:04:49.663Z,32.35
2018-08-19T15:07:18.217Z,32.21
2018-08-19T15:09:49.880Z,31.98
2018-08-19T15:12:21.404Z,31.87
2018-08-19T15:14:50.385Z,31.84
2018-08-19T15:17:18.971Z,31.72
2018-08-19T15:19:49.826Z,31.63
2018-08-19T15:22:18.267Z,31.59
2018-08-19T15:24:46.765Z,31.60
2018-08-19T15:27:15.444Z,31.56
2018-08-19T15:29:44.574Z,31.53
2018-08-19T15:32:13.258Z,31.53
2018-08-19T15:34:41.610Z,31.49
2018-08-19T15:37:10.179Z,31.34
2018-08-19T15:39:38.661Z,31.34
2018-08-19T15:42:07.273Z,31.31
2018-08-19T15:44:35.830Z,31.30
2018-08-19T15:47:04.325Z,31.25
2018-08-19T15:49:32.771Z,31.23
2018-08-19T15:52:01.377Z,31.19
2018-08-19T15:54:30.055Z,31.21
2018-08-19T15:57:01.909Z,31.15
2018-08-19T15:59:36.729Z,31.11
2018-08-19T16:02:05.420Z,31.12
2018-08-19T16:04:34.005Z,31.07
2018-08-19T16:07:02.803Z,31.03
2018-08-19T16:09:31.752Z,31.02
2018-08-19T16:12:00.265Z,31.00
2018-08-19T16:14:29.971Z,30.99
2018-08-19T16:16:59.489Z,30.97
2018-08-19T16:19:27.974Z,31.00
2018-08-19T16:21:57.484Z,30.96
2018-08-19T16:24:26.422Z,30.93
2018-08-19T16:26:54.863Z,30.90
2018-08-19T16:29:23.431Z,30.86
2018-08-19T16:31:52.242Z,30.85
2018-08-19T16:34:20.690Z,30.84
2018-08-19T16:36:49.214Z,30.82
2018-08-19T16:39:18.331Z,30.78
2018-08-19T16:41:46.813Z,30.73
2018-08-19T16:44:15.523Z,30.68
2018-08-19T16:46:43.964Z,30.73
2018-08-19T16:49:12.544Z,30.71
2018-08-19T16:51:41.103Z,30.67
2018-08-19T16:54:09.650Z,30.59
2018-08-19T16:56:38.397Z,30.51
2018-08-19T16:59:07.074Z,30.43
2018-08-19T17:01:35.685Z,30.36
2018-08-19T17:04:04.637Z,30.34
2018-08-19T17:06:33.101Z,30.24
2018-08-19T17:09:02.721Z,30.19
2018-08-19T17:11:31.146Z,30.17
2018-08-19T17:14:04.766Z,30.11
2018-08-19T17:16:33.205Z,30.08
2018-08-19T17:19:01.634Z,30.05
2018-08-19T17:21:30.076Z,29.99
2018-08-19T17:24:03.710Z,29.95
2018-08-19T17:26:32.227Z,29.93
2018-08-19T17:29:06.241Z,29.93
2018-08-19T17:31:34.736Z,29.87
2018-08-19T17:34:07.500Z,29.83
2018-08-19T17:36:35.906Z,29.83
2018-08-19T17:39:05.447Z,29.77
2018-08-19T17:41:33.849Z,29.73
2018-08-19T17:44:02.733Z,29.74
2018-08-19T17:46:31.155Z,29.70
2018-08-19T17:49:00.035Z,29.68
2018-08-19T17:51:33.510Z,29.63
2018-08-19T17:54:02.065Z,29.59
2018-08-19T17:56:30.501Z,29.54
2018-08-19T17:58:59.073Z,29.50
2018-08-19T18:01:27.654Z,29.49
2018-08-19T18:03:56.238Z,29.45
2018-08-19T18:06:24.683Z,29.43
2018-08-19T18:08:53.848Z,29.41
2018-08-19T18:11:22.731Z,29.37
2018-08-19T18:13:51.201Z,29.35
2018-08-19T18:16:19.843Z,29.31
2018-08-19T18:18:48.748Z,29.29
2018-08-19T18:21:17.357Z,29.26
2018-08-19T18:23:48.468Z,29.23
2018-08-19T18:26:16.955Z,29.18
2018-08-19T18:28:46.924Z,29.15
2018-08-19T18:31:20.843Z,29.11
2018-08-19T18:33:57.971Z,29.07
2018-08-19T18:36:29.303Z,29.01
2018-08-19T18:38:58.392Z,28.97
2018-08-19T18:41:40.591Z,28.92
2018-08-19T18:44:19.415Z,28.84
2018-08-19T18:46:48.115Z,28.80
2018-08-19T18:49:16.791Z,28.76
2018-08-19T18:51:48.197Z,28.73
2018-08-19T18:54:24.979Z,28.68
2018-08-19T18:56:53.799Z,28.64
2018-08-19T18:59:22.420Z,28.59
2018-08-19T19:01:50.873Z,28.52
2018-08-19T19:04:19.357Z,28.47
2018-08-19T19:06:48.343Z,28.40
2018-08-19T19:09:17.021Z,28.36
2018-08-19T19:11:45.535Z,28.32
2018-08-19T19:14:19.738Z,28.23
2018-08-19T19:16:51.487Z,28.23
2018-08-19T19:19:20.433Z,28.19
2018-08-19T19:21:54.095Z,28.13
2018-08-19T19:24:27.795Z,28.08
2018-08-19T19:26:56.465Z,28.05
2018-08-19T19:29:27.798Z,28.01
2018-08-19T19:31:57.606Z,27.96
2018-08-19T19:34:28.268Z,27.91
2018-08-19T19:36:56.778Z,27.88
2018-08-19T19:39:25.375Z,27.84
2018-08-19T19:42:02.940Z,27.81
2018-08-19T19:44:36.637Z,27.74
2018-08-19T19:47:06.521Z,27.68
2018-08-19T19:49:43.216Z,27.66
2018-08-19T19:52:12.102Z,27.63
2018-08-19T19:54:45.682Z,27.61
2018-08-19T19:57:14.483Z,27.56
2018-08-19T19:59:43.134Z,27.48
2018-08-19T20:02:44.075Z,27.46
2018-08-19T20:05:17.933Z,27.42
2018-08-19T20:07:46.418Z,27.34
2018-08-19T20:10:32.339Z,27.33
2018-08-19T20:13:01.142Z,27.32
2018-08-19T20:15:30.583Z,27.30
2018-08-19T20:17:59.078Z,27.24
2018-08-19T20:20:27.926Z,27.21
2018-08-19T20:23:08.927Z,27.17
2018-08-19T20:25:37.298Z,27.14
2018-08-19T20:28:09.127Z,27.12
2018-08-19T20:30:39.389Z,27.06
2018-08-19T20:33:30.247Z,27.02
2018-08-19T20:35:59.308Z,26.97
2018-08-19T20:38:27.765Z,26.97
2018-08-19T20:40:56.285Z,26.93
2018-08-19T20:43:25.460Z,26.93
2018-08-19T20:45:53.907Z,26.92
2018-08-19T20:48:22.965Z,26.89
2018-08-19T20:50:51.651Z,26.87
2018-08-19T20:53:20.159Z,26.82
2018-08-19T20:55:48.877Z,26.79
2018-08-19T20:58:17.306Z,26.76
2018-08-19T21:00:46.088Z,26.74
2018-08-19T21:03:33.374Z,26.71
2018-08-19T21:06:01.746Z,26.72
2018-08-19T21:08:30.199Z,26.71
2018-08-19T21:10:58.702Z,26.67
2018-08-19T21:13:27.090Z,26.66
2018-08-19T21:15:55.653Z,26.63
2018-08-19T21:18:24.185Z,26.56
2018-08-19T21:20:54.208Z,26.51
2018-08-19T21:23:22.789Z,26.49
2018-08-19T21:25:56.511Z,26.47
2018-08-19T21:28:24.891Z,26.43
2018-08-19T21:30:53.296Z,26.38
2018-08-19T21:33:21.666Z,26.31
2018-08-19T21:35:50.817Z,26.31
2018-08-19T21:38:19.361Z,26.35
2018-08-19T21:40:47.867Z,26.40
2018-08-19T21:43:16.289Z,26.35
2018-08-19T21:45:44.732Z,26.29
2018-08-19T21:48:16.805Z,26.22
2018-08-19T21:50:45.186Z,26.16
2018-08-19T21:53:16.989Z,26.05
2018-08-19T21:55:46.752Z,25.98
2018-08-19T21:58:15.314Z,25.94
2018-08-19T22:00:54.394Z,25.92
2018-08-19T22:03:28.154Z,25.90
2018-08-19T22:05:56.728Z,25.88
2018-08-19T22:08:26.360Z,25.87
2018-08-19T22:10:54.846Z,25.90
2018-08-19T22:13:23.378Z,25.87
2018-08-19T22:15:51.805Z,25.86
2018-08-19T22:18:21.523Z,25.84
2018-08-19T22:21:05.328Z,25.83
2018-08-19T22:23:39.493Z,25.80
2018-08-19T22:26:08.376Z,25.74
2018-08-19T22:28:36.799Z,25.71
2018-08-19T22:31:17.368Z,25.68
2018-08-19T22:33:49.910Z,25.67
2018-08-19T22:36:19.000Z,25.67
2018-08-19T22:38:47.737Z,25.67
2018-08-19T22:41:19.693Z,25.65
2018-08-19T22:43:48.467Z,25.63
2018-08-19T22:46:17.218Z,25.55
2018-08-19T22:48:45.588Z,25.50
2018-08-19T22:51:15.032Z,25.44
2018-08-19T22:53:43.476Z,25.40
2018-08-19T22:56:11.883Z,25.35
2018-08-19T22:58:40.468Z,25.34
2018-08-19T23:01:09.077Z,25.31
2018-08-19T23:03:38.037Z,25.28
2018-08-19T23:06:06.522Z,25.20
2018-08-19T23:08:34.891Z,25.15
2018-08-19T23:11:04.205Z,25.15
2018-08-19T23:13:43.947Z,25.15
2018-08-19T23:16:13.042Z,25.12
2018-08-19T23:18:42.263Z,25.06
2018-08-19T23:21:10.950Z,25.01
2018-08-19T23:23:39.615Z,24.98
2018-08-19T23:26:08.094Z,24.93
2018-08-19T23:28:36.530Z,24.90
2018-08-19T23:31:05.068Z,24.88
2018-08-19T23:33:33.613Z,24.88
2018-08-19T23:36:02.025Z,24.88
2018-08-19T23:38:30.562Z,24.87
2018-08-19T23:41:00.030Z,24.85
2018-08-19T23:43:28.805Z,24.84
2018-08-19T23:45:57.511Z,24.84
2018-08-19T23:48:25.925Z,24.79
2018-08-19T23:50:54.616Z,24.78
2018-08-19T23:53:23.040Z,24.77
2018-08-19T23:55:51.466Z,24.72
2018-08-19T23:58:19.908Z,24.68
